Weather at Lennox Plunton Airstrip

Public forecast

Using degrees Celsius for public forecast. Weather courtesy of forecast.io.

Closest aviation weather report (METAR) to Lennox Plunton Airstrip

Closest report is Glasgow Prestwick Airport, 42.3 nm (78.3 km) NNW.

2024/02/25 11:50 (retrieved 23 minutes ago)

EGPK 251150Z 04008KT 9999 FEW035 08/03 Q0999

Closest aviation forecast (TAF) to Lennox Plunton Airstrip

Closest forecast is Glasgow Prestwick Airport, 42.3 nm (78.3 km) NNW.

2024/02/25 12:00 (retrieved 13 minutes ago)

TAF EGPK 251055Z 2512/2612 08005KT 9999 SCT030